Terminal Aerodrome Forecast
Issued by NWS Shreveport, LA

Home | Current Version | Previous Version | Text Only | Print | Product List | Glossary On
Versions: 1 2 3 4 5 6 7 8 9 10 11 12 13 14 15 16 17 18 19 20 21 22
000
FTUS44 KSHV 211427 AAB
TAFLFK
TAF AMD
KLFK 211427Z 2114/2212 14005KT P6SM VCSH BKN010
     FM211600 16008KT P6SM VCSH BKN025
     FM211800 16008KT P6SM VCTS SCT035 BKN060CB
     FM220100 15003KT P6SM SCT250
     FM220800 15003KT P6SM OVC010=

USA.gov is the U.S. government's official web portal to all federal, state and local government web resources and services.